createdAt,value
2022-10-24T00:00:01.084Z,40.28
2022-10-24T00:01:01.076Z,42.06
2022-10-24T00:02:01.101Z,41.25
2022-10-24T00:03:01.172Z,42.86
2022-10-24T00:04:01.109Z,45.44
2022-10-24T00:05:01.182Z,43.34
2022-10-24T00:06:01.034Z,42.22
2022-10-24T00:07:01.078Z,40.77
2022-10-24T00:08:01.046Z,41.57
2022-10-24T00:09:01.001Z,40.61
2022-10-24T00:10:01.017Z,42.54
2022-10-24T00:11:00.979Z,42.06
2022-10-24T00:12:00.961Z,50.27
2022-10-24T00:13:00.967Z,48.50
2022-10-24T00:14:01.032Z,57.52
2022-10-24T00:15:00.930Z,43.18
2022-10-24T00:16:00.911Z,42.70
2022-10-24T00:17:00.941Z,41.25
2022-10-24T00:18:00.924Z,44.79
2022-10-24T00:19:00.895Z,43.34
2022-10-24T00:20:00.880Z,43.51
2022-10-24T00:21:00.908Z,43.67
2022-10-24T00:22:00.876Z,55.43
2022-10-24T00:23:00.894Z,44.63
2022-10-24T00:24:00.889Z,40.77
2022-10-24T00:25:00.876Z,42.38
2022-10-24T00:26:00.817Z,61.23
2022-10-24T00:27:00.823Z,42.70
2022-10-24T00:28:00.789Z,43.34
2022-10-24T00:30:00.814Z,65.26
2022-10-24T00:31:00.761Z,46.41
2022-10-24T00:32:00.794Z,42.22
2022-10-24T00:33:00.769Z,45.76
2022-10-24T00:34:00.800Z,62.52
2022-10-24T00:35:00.733Z,42.86
2022-10-24T00:36:00.725Z,45.28
2022-10-24T00:37:00.735Z,44.96
2022-10-24T00:38:00.687Z,40.93
2022-10-24T00:39:00.760Z,43.67
2022-10-24T00:40:00.696Z,40.77
2022-10-24T00:41:00.927Z,48.66
2022-10-24T00:42:00.651Z,47.70
2022-10-24T00:43:00.642Z,47.21
2022-10-24T00:44:00.666Z,52.69
2022-10-24T00:45:00.621Z,44.63
2022-10-24T00:46:00.604Z,43.83
2022-10-24T00:47:00.663Z,45.12
2022-10-24T00:48:00.608Z,48.18
2022-10-24T00:49:00.651Z,44.79
2022-10-24T00:50:00.609Z,44.79
2022-10-24T00:51:00.616Z,65.58
2022-10-24T00:52:00.560Z,43.34
2022-10-24T00:53:00.573Z,40.77
2022-10-24T00:54:00.622Z,40.77
2022-10-24T00:55:00.534Z,41.89
2022-10-24T00:56:00.542Z,43.67
2022-10-24T00:57:00.547Z,47.70
2022-10-24T00:58:00.520Z,40.93
2022-10-24T00:59:00.487Z,42.54
2022-10-24T01:00:00.485Z,45.60
2022-10-24T01:01:00.564Z,41.89
2022-10-24T01:02:00.509Z,54.30
2022-10-24T01:03:00.439Z,42.38
2022-10-24T01:04:00.440Z,49.95
2022-10-24T01:05:00.470Z,46.41
2022-10-24T01:06:00.406Z,46.08
2022-10-24T01:07:00.424Z,44.63
2022-10-24T01:08:00.388Z,41.73
2022-10-24T01:09:00.401Z,43.51
2022-10-24T01:10:00.400Z,45.60
2022-10-24T01:11:00.360Z,45.92
2022-10-24T01:12:00.428Z,48.02
2022-10-24T01:13:00.420Z,46.89
2022-10-24T01:14:00.326Z,45.92
2022-10-24T01:15:00.339Z,45.76
2022-10-24T01:16:00.367Z,41.25
2022-10-24T01:17:00.323Z,41.73
2022-10-24T01:18:00.373Z,42.70
2022-10-24T01:19:00.289Z,42.06
2022-10-24T01:20:00.359Z,53.98
2022-10-24T01:21:00.278Z,43.83
2022-10-24T01:22:00.299Z,42.38
2022-10-24T01:23:00.289Z,47.53
2022-10-24T01:24:00.238Z,44.63
2022-10-24T01:25:00.316Z,43.34
2022-10-24T01:26:00.198Z,43.02
2022-10-24T01:27:00.207Z,43.67
2022-10-24T01:28:00.242Z,44.31
2022-10-24T01:29:00.200Z,41.89
2022-10-24T01:30:00.179Z,48.18
2022-10-24T01:31:00.202Z,43.67
2022-10-24T01:32:00.169Z,42.06
2022-10-24T01:33:00.156Z,57.04
2022-10-24T01:34:00.167Z,42.86
2022-10-24T01:35:00.175Z,54.30
2022-10-24T01:36:00.182Z,42.70
2022-10-24T01:37:00.346Z,44.47
2022-10-24T01:38:00.092Z,43.18
2022-10-24T01:39:00.099Z,41.89
2022-10-24T01:40:00.097Z,44.15
2022-10-24T01:41:00.092Z,44.15
2022-10-24T01:42:00.052Z,44.63
2022-10-24T01:43:00.044Z,46.08
2022-10-24T01:44:00.033Z,44.15
2022-10-24T01:45:00.094Z,42.38
2022-10-24T01:46:00.066Z,43.34
2022-10-24T01:47:00.030Z,52.05
2022-10-24T01:47:59.999Z,53.50
2022-10-24T01:49:00.001Z,51.40
2022-10-24T01:49:59.981Z,43.83
2022-10-24T01:50:59.975Z,42.70
2022-10-24T01:52:00.043Z,42.22
2022-10-24T01:53:00.036Z,43.02
2022-10-24T01:53:59.945Z,42.86
2022-10-24T01:55:00.197Z,43.34
2022-10-24T01:55:59.931Z,44.15
2022-10-24T01:56:59.958Z,45.92
2022-10-24T01:57:59.930Z,46.08
2022-10-24T01:58:59.897Z,43.51
2022-10-24T01:59:59.888Z,43.34
2022-10-24T02:00:59.871Z,46.08
2022-10-24T02:01:59.935Z,44.79
2022-10-24T02:02:59.865Z,42.86
2022-10-24T02:03:59.857Z,54.62
2022-10-24T02:04:59.834Z,44.15
2022-10-24T02:05:59.811Z,45.76
2022-10-24T02:06:59.811Z,43.02
2022-10-24T02:07:59.833Z,57.85
2022-10-24T02:08:59.816Z,45.92
2022-10-24T02:09:59.824Z,48.18
2022-10-24T02:10:59.812Z,46.57
2022-10-24T02:11:59.749Z,50.27
2022-10-24T02:12:59.813Z,57.85
2022-10-24T02:13:59.758Z,43.51
2022-10-24T02:14:59.768Z,44.31
2022-10-24T02:15:59.750Z,51.08
2022-10-24T02:16:59.698Z,55.27
2022-10-24T02:17:59.717Z,53.01
2022-10-24T02:18:59.722Z,48.66
2022-10-24T02:19:59.683Z,43.83
2022-10-24T02:20:59.662Z,42.54
2022-10-24T02:21:59.714Z,43.67
2022-10-24T02:22:59.701Z,47.53
2022-10-24T02:23:59.710Z,42.38
2022-10-24T02:24:59.654Z,43.67
2022-10-24T02:25:59.725Z,49.31
2022-10-24T02:26:59.655Z,43.83
2022-10-24T02:27:59.705Z,49.79
2022-10-24T02:28:59.576Z,47.53
2022-10-24T02:29:59.567Z,53.82
2022-10-24T02:30:59.566Z,52.53
2022-10-24T02:31:59.554Z,45.92
2022-10-24T02:32:59.558Z,59.62
2022-10-24T02:33:59.531Z,53.50
2022-10-24T02:34:59.542Z,56.56
2022-10-24T02:35:59.544Z,49.95
2022-10-24T02:36:59.506Z,53.01
2022-10-24T02:37:59.572Z,48.18
2022-10-24T02:38:59.476Z,47.21
2022-10-24T02:39:59.496Z,48.50
2022-10-24T02:40:59.485Z,45.44
2022-10-24T02:41:59.471Z,45.60
2022-10-24T02:42:59.454Z,46.57
2022-10-24T02:43:59.435Z,52.69
2022-10-24T02:44:59.433Z,44.31
2022-10-24T02:45:59.414Z,45.76
2022-10-24T02:46:59.413Z,45.12
2022-10-24T02:47:59.627Z,46.57
2022-10-24T02:48:59.396Z,45.60
2022-10-24T02:49:59.347Z,48.02
2022-10-24T02:50:59.422Z,44.31
2022-10-24T02:51:59.347Z,52.05
2022-10-24T02:52:59.423Z,47.05
2022-10-24T02:53:59.328Z,44.63
2022-10-24T02:54:59.348Z,55.91
2022-10-24T02:55:59.293Z,43.51
2022-10-24T02:56:59.292Z,46.41
2022-10-24T02:57:59.281Z,46.73
2022-10-24T02:58:59.446Z,47.05
2022-10-24T02:59:59.272Z,48.50
2022-10-24T03:00:59.368Z,46.41
2022-10-24T03:01:59.281Z,47.86
2022-10-24T03:02:59.264Z,48.66
2022-10-24T03:03:59.207Z,48.18
2022-10-24T03:04:59.240Z,53.50
2022-10-24T03:05:59.201Z,46.89
2022-10-24T03:06:59.202Z,59.62
2022-10-24T03:07:59.170Z,55.27
2022-10-24T03:08:59.195Z,50.11
2022-10-24T03:09:59.198Z,59.14
2022-10-24T03:10:59.192Z,66.39
2022-10-24T03:11:59.157Z,48.18
2022-10-24T03:12:59.139Z,53.98
2022-10-24T03:13:59.148Z,49.15
2022-10-24T03:14:59.155Z,47.21
2022-10-24T03:15:59.128Z,46.41
2022-10-24T03:16:59.147Z,46.57
2022-10-24T03:17:59.122Z,51.24
2022-10-24T03:18:59.078Z,61.39
2022-10-24T03:19:59.083Z,51.88
2022-10-24T03:20:59.079Z,48.34
2022-10-24T03:21:59.072Z,50.76
2022-10-24T03:22:59.038Z,56.07
2022-10-24T03:23:59.140Z,48.82
2022-10-24T03:24:58.988Z,72.51
2022-10-24T03:25:59.015Z,71.06
2022-10-24T03:26:58.919Z,87.17
2022-10-24T03:27:58.986Z,60.42
2022-10-24T03:28:58.979Z,60.26
2022-10-24T03:29:58.924Z,77.67
2022-10-24T03:30:58.963Z,74.28
2022-10-24T03:31:58.932Z,63.49
2022-10-24T03:32:58.914Z,71.54
2022-10-24T03:33:58.915Z,56.07
2022-10-24T03:34:58.916Z,59.62
2022-10-24T03:35:58.926Z,59.78
2022-10-24T03:36:58.893Z,61.23
2022-10-24T03:37:58.919Z,59.46
2022-10-24T03:38:58.872Z,56.88
2022-10-24T03:39:58.855Z,60.75
2022-10-24T03:40:58.866Z,67.84
2022-10-24T03:41:58.865Z,55.11
2022-10-24T03:42:58.872Z,54.14
2022-10-24T03:43:58.834Z,51.24
2022-10-24T03:44:58.871Z,66.55
2022-10-24T03:45:58.782Z,52.05
2022-10-24T03:46:58.765Z,59.46
2022-10-24T03:47:58.836Z,68.48
2022-10-24T03:48:58.821Z,61.07
2022-10-24T03:49:58.765Z,59.46
2022-10-24T03:50:58.686Z,68.48
2022-10-24T03:51:58.729Z,58.17
2022-10-24T03:52:58.735Z,61.87
2022-10-24T03:53:58.759Z,61.87
2022-10-24T03:54:58.713Z,57.36
2022-10-24T03:55:58.705Z,56.40
2022-10-24T03:56:58.710Z,58.33
2022-10-24T03:57:58.670Z,58.97
2022-10-24T03:58:58.683Z,49.63
2022-10-24T03:59:58.679Z,55.75
2022-10-24T04:00:58.848Z,48.50
2022-10-24T04:01:58.698Z,50.11
2022-10-24T04:02:58.714Z,55.59
2022-10-24T04:03:58.636Z,72.51
2022-10-24T04:04:58.627Z,56.88
2022-10-24T04:05:58.604Z,60.42
2022-10-24T04:06:58.594Z,63.49
2022-10-24T04:07:58.618Z,60.26
2022-10-24T04:08:58.558Z,70.90
2022-10-24T04:09:58.563Z,61.23
2022-10-24T04:10:58.544Z,53.66
2022-10-24T04:11:58.521Z,52.69
2022-10-24T04:12:58.537Z,61.71
2022-10-24T04:13:58.603Z,63.49
2022-10-24T04:15:02.429Z,55.27
2022-10-24T04:15:58.494Z,67.19
2022-10-24T04:16:58.411Z,69.93
2022-10-24T04:17:58.481Z,59.78
2022-10-24T04:18:58.462Z,63.81
2022-10-24T04:19:58.448Z,56.88
2022-10-24T04:20:58.475Z,59.78
2022-10-24T04:21:58.465Z,52.21
2022-10-24T04:23:00.093Z,61.87
2022-10-24T04:23:58.406Z,58.81
2022-10-24T04:24:58.439Z,59.14
2022-10-24T04:25:58.427Z,57.20
2022-10-24T04:26:58.398Z,58.81
2022-10-24T04:27:58.362Z,59.78
2022-10-24T04:28:58.369Z,59.30
2022-10-24T04:29:58.392Z,58.17
2022-10-24T04:30:58.410Z,57.69
2022-10-24T04:31:58.316Z,62.52
2022-10-24T04:32:58.310Z,69.93
2022-10-24T04:33:58.326Z,60.59
2022-10-24T04:34:58.301Z,63.81
2022-10-24T04:35:58.288Z,56.40
2022-10-24T04:36:58.276Z,70.25
2022-10-24T04:37:58.327Z,66.87
2022-10-24T04:38:58.277Z,54.30
2022-10-24T04:39:58.242Z,57.52
2022-10-24T04:40:58.221Z,60.75
2022-10-24T04:41:59.008Z,56.88
2022-10-24T04:42:58.283Z,57.04
2022-10-24T04:43:58.216Z,57.85
2022-10-24T04:44:58.295Z,58.81
2022-10-24T04:45:58.201Z,59.94
2022-10-24T04:46:58.243Z,70.90
2022-10-24T04:47:58.187Z,60.75
2022-10-24T04:48:58.194Z,63.16
2022-10-24T04:49:58.123Z,68.32
2022-10-24T04:50:58.143Z,61.07
2022-10-24T04:51:58.124Z,60.42
2022-10-24T04:52:58.381Z,60.42
2022-10-24T04:53:58.149Z,70.90
2022-10-24T04:54:58.042Z,63.65
2022-10-24T04:55:58.150Z,68.64
2022-10-24T04:56:58.053Z,73.96
2022-10-24T04:57:58.091Z,61.23
2022-10-24T04:58:58.074Z,62.36
2022-10-24T04:59:58.048Z,65.90
2022-10-24T05:00:58.067Z,58.81
2022-10-24T05:01:58.055Z,63.00
2022-10-24T05:02:59.084Z,62.20
2022-10-24T05:03:58.129Z,59.30
2022-10-24T05:04:58.048Z,64.13
2022-10-24T05:05:57.956Z,61.23
2022-10-24T05:06:57.978Z,61.87
2022-10-24T05:07:58.005Z,61.07
2022-10-24T05:08:57.948Z,60.59
2022-10-24T05:09:58.006Z,63.97
2022-10-24T05:10:57.940Z,69.93
2022-10-24T05:11:57.963Z,71.22
2022-10-24T05:12:57.957Z,67.19
2022-10-24T05:13:57.939Z,69.29
2022-10-24T05:14:58.016Z,63.97
2022-10-24T05:15:57.901Z,63.00
2022-10-24T05:16:57.911Z,63.65
2022-10-24T05:17:57.897Z,69.77
2022-10-24T05:18:57.855Z,64.94
2022-10-24T05:19:57.888Z,64.29
2022-10-24T05:20:57.841Z,63.97
2022-10-24T05:21:57.822Z,64.29
2022-10-24T05:22:57.811Z,69.93
2022-10-24T05:23:57.749Z,72.35
2022-10-24T05:24:57.820Z,68.96
2022-10-24T05:25:57.779Z,64.78
2022-10-24T05:26:57.816Z,82.50
2022-10-24T05:27:57.759Z,66.39
2022-10-24T05:28:57.794Z,63.97
2022-10-24T05:29:58.026Z,63.00
2022-10-24T05:30:57.751Z,69.77
2022-10-24T05:31:57.750Z,63.16
2022-10-24T05:32:57.765Z,63.97
2022-10-24T05:33:57.694Z,62.04
2022-10-24T05:34:57.641Z,68.80
2022-10-24T05:35:57.652Z,62.20
2022-10-24T05:36:57.635Z,71.06
2022-10-24T05:37:57.622Z,66.55
2022-10-24T05:38:57.713Z,79.60
2022-10-24T05:39:57.624Z,73.32
2022-10-24T05:40:57.577Z,66.87
2022-10-24T05:41:57.632Z,67.84
2022-10-24T05:42:57.666Z,66.87
2022-10-24T05:43:57.655Z,66.06
2022-10-24T05:44:57.581Z,66.23
2022-10-24T05:45:57.581Z,73.80
2022-10-24T05:46:57.514Z,69.29
2022-10-24T05:47:57.563Z,67.19
2022-10-24T05:48:57.542Z,62.52
2022-10-24T05:49:57.502Z,71.54
2022-10-24T05:50:57.590Z,72.67
2022-10-24T05:51:57.482Z,72.67
2022-10-24T05:52:57.437Z,66.06
2022-10-24T05:53:57.496Z,64.29
2022-10-24T05:55:06.876Z,80.89
2022-10-24T05:55:57.458Z,63.49
2022-10-24T05:56:57.500Z,60.59
2022-10-24T05:57:57.427Z,63.33
2022-10-24T05:58:57.416Z,61.55
2022-10-24T05:59:57.406Z,65.10
2022-10-24T06:00:57.387Z,64.61
2022-10-24T06:01:57.545Z,67.03
2022-10-24T06:02:57.410Z,61.39
2022-10-24T06:03:57.385Z,64.45
2022-10-24T06:04:57.413Z,67.35
2022-10-24T06:05:57.393Z,64.45
2022-10-24T06:06:57.430Z,68.16
2022-10-24T06:07:57.499Z,71.06
2022-10-24T06:08:57.466Z,70.25
2022-10-24T06:09:57.413Z,58.01
2022-10-24T06:10:57.721Z,58.97
2022-10-24T06:11:57.415Z,68.64
2022-10-24T06:12:57.316Z,60.26
2022-10-24T06:13:57.349Z,61.55
2022-10-24T06:14:57.280Z,64.13
2022-10-24T06:15:57.305Z,60.75
2022-10-24T06:16:57.295Z,60.59
2022-10-24T06:17:57.296Z,65.10
2022-10-24T06:18:57.230Z,61.87
2022-10-24T06:19:57.183Z,64.78
2022-10-24T06:20:57.201Z,60.42
2022-10-24T06:21:57.172Z,60.42
2022-10-24T06:22:57.166Z,61.39
2022-10-24T06:23:57.193Z,62.04
2022-10-24T06:24:57.126Z,62.84
2022-10-24T06:25:57.117Z,55.91
2022-10-24T06:26:57.090Z,62.04
2022-10-24T06:27:57.190Z,67.35
2022-10-24T06:28:57.133Z,63.97
2022-10-24T06:29:57.176Z,61.23
2022-10-24T06:30:57.245Z,58.97
2022-10-24T06:31:57.322Z,65.74
2022-10-24T06:32:57.051Z,61.23
2022-10-24T06:33:57.033Z,72.35
2022-10-24T06:34:57.032Z,65.74
2022-10-24T06:35:57.335Z,63.81
2022-10-24T06:36:57.017Z,69.13
2022-10-24T06:37:57.016Z,61.55
2022-10-24T06:38:56.987Z,60.75
2022-10-24T06:39:56.982Z,61.55
2022-10-24T06:40:56.990Z,63.81
2022-10-24T06:41:57.002Z,64.45
2022-10-24T06:42:57.006Z,67.68
2022-10-24T06:43:56.947Z,59.46
2022-10-24T06:44:57.306Z,66.23
2022-10-24T06:45:57.030Z,58.65
2022-10-24T06:46:57.058Z,58.81
2022-10-24T06:47:57.250Z,62.52
2022-10-24T06:48:56.895Z,69.61
2022-10-24T06:49:56.893Z,63.81
2022-10-24T06:50:56.920Z,63.00
2022-10-24T06:51:56.906Z,63.97
2022-10-24T06:52:56.849Z,67.84
2022-10-24T06:53:56.844Z,60.42
2022-10-24T06:54:56.823Z,58.01
2022-10-24T06:55:56.831Z,60.91
2022-10-24T06:56:56.844Z,60.91
2022-10-24T06:57:56.808Z,69.45
2022-10-24T06:58:56.839Z,60.59
2022-10-24T06:59:56.797Z,60.75
2022-10-24T07:00:56.770Z,61.39
2022-10-24T07:02:00.357Z,61.87
2022-10-24T07:02:57.091Z,63.81
2022-10-24T07:03:56.733Z,66.23
2022-10-24T07:04:56.708Z,63.81
2022-10-24T07:05:56.706Z,70.58
2022-10-24T07:06:56.934Z,68.00
2022-10-24T07:07:56.733Z,61.23
2022-10-24T07:08:56.677Z,70.09
2022-10-24T07:09:56.697Z,65.10
2022-10-24T07:10:56.650Z,63.65
2022-10-24T07:11:56.644Z,67.35
2022-10-24T07:12:56.676Z,63.65
2022-10-24T07:13:59.689Z,58.17
2022-10-24T07:14:56.623Z,58.81
2022-10-24T07:15:56.614Z,60.75
2022-10-24T07:16:56.609Z,70.09
2022-10-24T07:17:56.632Z,68.16
2022-10-24T07:18:56.587Z,65.26
2022-10-24T07:19:56.563Z,61.07
2022-10-24T07:20:56.564Z,53.98
2022-10-24T07:21:56.566Z,58.97
2022-10-24T07:22:56.568Z,68.32
2022-10-24T07:23:56.530Z,63.81
2022-10-24T07:24:56.635Z,60.42
2022-10-24T07:25:56.521Z,67.35
2022-10-24T07:26:56.517Z,61.87
2022-10-24T07:27:56.571Z,62.84
2022-10-24T07:28:56.628Z,64.13
2022-10-24T07:29:57.346Z,67.84
2022-10-24T07:30:56.477Z,59.94
2022-10-24T07:31:56.559Z,63.81
2022-10-24T07:32:56.515Z,61.71
2022-10-24T07:33:56.445Z,62.68
2022-10-24T07:34:56.417Z,63.33
2022-10-24T07:35:56.408Z,60.59
2022-10-24T07:36:56.398Z,65.58
2022-10-24T07:37:56.456Z,64.29
2022-10-24T07:38:56.430Z,64.29
2022-10-24T07:39:56.419Z,65.74
2022-10-24T07:40:56.364Z,71.70
2022-10-24T07:41:56.330Z,69.13
2022-10-24T07:42:56.384Z,62.04
2022-10-24T07:43:56.347Z,58.49
2022-10-24T07:44:56.364Z,61.39
2022-10-24T07:45:56.327Z,57.36
2022-10-24T07:46:56.336Z,64.78
2022-10-24T07:47:56.277Z,60.91
2022-10-24T07:48:56.880Z,59.94
2022-10-24T07:49:56.289Z,59.30
2022-10-24T07:50:56.292Z,67.51
2022-10-24T07:51:56.233Z,66.23
2022-10-24T07:52:56.243Z,61.71
2022-10-24T07:53:56.246Z,64.45
2022-10-24T07:54:56.228Z,64.29
2022-10-24T07:55:56.242Z,60.10
2022-10-24T07:56:56.218Z,62.84
2022-10-24T07:57:56.192Z,61.71
2022-10-24T07:58:56.208Z,65.74
2022-10-24T07:59:56.179Z,56.24
2022-10-24T08:00:56.182Z,70.90
2022-10-24T08:01:56.244Z,65.42
2022-10-24T08:02:56.192Z,68.32
2022-10-24T08:03:56.158Z,72.83
2022-10-24T08:04:56.112Z,68.80
2022-10-24T08:05:56.116Z,58.65
2022-10-24T08:06:56.104Z,54.95
2022-10-24T08:08:11.983Z,68.32
2022-10-24T08:08:56.093Z,65.42
2022-10-24T08:09:56.091Z,63.33
2022-10-24T08:10:56.116Z,60.91
2022-10-24T08:11:56.035Z,65.90
2022-10-24T08:12:56.122Z,63.33
2022-10-24T08:13:56.006Z,60.59
2022-10-24T08:14:56.027Z,67.51
2022-10-24T08:15:55.994Z,60.59
2022-10-24T08:16:55.997Z,59.46
2022-10-24T08:17:55.976Z,65.42
2022-10-24T08:18:55.965Z,60.42
2022-10-24T08:19:55.968Z,60.75
2022-10-24T08:20:55.997Z,61.39
2022-10-24T08:21:55.957Z,70.58
2022-10-24T08:22:55.928Z,65.10
2022-10-24T08:23:55.908Z,59.78
2022-10-24T08:24:55.923Z,59.46
2022-10-24T08:25:55.908Z,64.29
2022-10-24T08:26:55.887Z,60.42
2022-10-24T08:27:55.894Z,61.07
2022-10-24T08:28:55.864Z,67.51
2022-10-24T08:29:55.899Z,69.61
2022-10-24T08:30:55.922Z,68.32
2022-10-24T08:31:55.850Z,69.61
2022-10-24T08:32:55.824Z,59.78
2022-10-24T08:33:55.860Z,62.36
2022-10-24T08:34:55.836Z,70.74
2022-10-24T08:35:55.794Z,58.17
2022-10-24T08:36:55.852Z,56.24
2022-10-24T08:37:55.794Z,68.00
2022-10-24T08:38:55.800Z,74.12
2022-10-24T08:39:55.814Z,56.72
2022-10-24T08:40:55.826Z,59.78
2022-10-24T08:41:57.961Z,56.24
2022-10-24T08:42:55.741Z,61.07
2022-10-24T08:43:55.759Z,60.91
2022-10-24T08:44:55.761Z,56.88
2022-10-24T08:45:55.714Z,62.20
2022-10-24T08:46:55.714Z,68.32
2022-10-24T08:47:55.683Z,59.62
2022-10-24T08:48:55.703Z,63.65
2022-10-24T08:49:55.680Z,63.97
2022-10-24T08:50:55.646Z,61.55
2022-10-24T08:51:55.708Z,65.10
2022-10-24T08:52:55.651Z,66.23
2022-10-24T08:53:55.699Z,88.62
2022-10-24T08:54:55.631Z,65.42
2022-10-24T08:55:55.636Z,90.07
2022-10-24T08:56:55.605Z,58.65
2022-10-24T08:57:55.644Z,70.58
2022-10-24T08:58:55.626Z,60.91
2022-10-24T08:59:55.580Z,59.78
2022-10-24T09:00:55.653Z,68.48
2022-10-24T09:01:57.464Z,64.94
2022-10-24T09:02:55.681Z,60.10
2022-10-24T09:03:57.031Z,70.58
2022-10-24T09:04:55.558Z,64.94
2022-10-24T09:05:55.543Z,68.16
2022-10-24T09:06:55.503Z,66.87
2022-10-24T09:07:55.755Z,60.59
2022-10-24T09:08:55.499Z,65.90
2022-10-24T09:09:55.468Z,70.42
2022-10-24T09:10:55.468Z,67.51
2022-10-24T09:11:55.585Z,61.07
2022-10-24T09:12:55.478Z,63.81
2022-10-24T09:13:55.419Z,59.94
2022-10-24T09:14:55.461Z,64.61
2022-10-24T09:15:55.418Z,63.81
2022-10-24T09:16:55.423Z,64.13
2022-10-24T09:17:55.423Z,68.96
2022-10-24T09:18:55.414Z,60.91
2022-10-24T09:19:55.378Z,74.44
2022-10-24T09:20:55.389Z,57.69
2022-10-24T09:21:55.362Z,65.26
2022-10-24T09:22:55.367Z,61.87
2022-10-24T09:23:55.340Z,63.97
2022-10-24T09:24:55.330Z,64.13
2022-10-24T09:25:55.314Z,67.19
2022-10-24T09:26:55.342Z,58.49
2022-10-24T09:27:55.290Z,65.90
2022-10-24T09:28:55.275Z,58.81
2022-10-24T09:29:55.263Z,60.59
2022-10-24T09:30:55.285Z,59.46
2022-10-24T09:31:55.274Z,63.16
2022-10-24T09:32:55.270Z,67.19
2022-10-24T09:33:55.231Z,66.23
2022-10-24T09:34:55.311Z,64.13
2022-10-24T09:35:55.258Z,56.72
2022-10-24T09:36:55.310Z,71.22
2022-10-24T09:37:55.294Z,62.68
2022-10-24T09:38:55.213Z,70.25
2022-10-24T09:39:55.171Z,58.65
2022-10-24T09:40:55.671Z,61.07
2022-10-24T09:41:55.274Z,61.39
2022-10-24T09:42:55.158Z,60.59
2022-10-24T09:43:55.157Z,65.74
2022-10-24T09:44:55.142Z,67.35
2022-10-24T09:45:55.120Z,87.66
2022-10-24T09:46:55.092Z,68.80
2022-10-24T09:47:55.101Z,61.55
2022-10-24T09:48:55.066Z,63.81
2022-10-24T09:49:55.076Z,77.18
2022-10-24T09:50:55.085Z,68.00
2022-10-24T09:51:55.049Z,64.61
2022-10-24T09:52:55.085Z,65.10
2022-10-24T09:53:55.028Z,59.30
2022-10-24T09:54:55.018Z,61.07
2022-10-24T09:55:55.011Z,69.13
2022-10-24T09:56:55.001Z,66.39
2022-10-24T09:57:54.979Z,59.46
2022-10-24T09:58:54.991Z,60.75
2022-10-24T09:59:54.961Z,72.99
2022-10-24T10:00:54.998Z,69.61
2022-10-24T10:01:55.087Z,61.55
2022-10-24T10:02:54.932Z,57.52
2022-10-24T10:03:55.100Z,61.87
2022-10-24T10:04:54.978Z,65.74
2022-10-24T10:05:54.914Z,59.14
2022-10-24T10:06:54.962Z,63.49
2022-10-24T10:07:54.953Z,65.90
2022-10-24T10:08:54.941Z,61.23
2022-10-24T10:09:56.732Z,63.49
2022-10-24T10:10:54.855Z,57.69
2022-10-24T10:12:02.545Z,66.71
2022-10-24T10:12:54.839Z,62.20
2022-10-24T10:13:55.278Z,59.94
2022-10-24T10:14:54.875Z,56.24
2022-10-24T10:15:54.787Z,62.84
2022-10-24T10:17:54.780Z,65.74
2022-10-24T10:18:54.825Z,66.39
2022-10-24T10:19:54.784Z,56.88
2022-10-24T10:20:54.827Z,57.85
2022-10-24T10:21:54.824Z,61.39
2022-10-24T10:22:54.716Z,62.04
2022-10-24T10:23:54.705Z,56.88
2022-10-24T10:24:54.819Z,66.87
2022-10-24T10:25:54.722Z,64.29
2022-10-24T10:26:54.694Z,63.65
2022-10-24T10:27:54.664Z,64.61
2022-10-24T10:28:54.784Z,58.33
2022-10-24T10:29:54.687Z,66.71
2022-10-24T10:30:54.650Z,60.42
2022-10-24T10:31:54.659Z,68.16
2022-10-24T10:32:54.624Z,67.03
2022-10-24T10:33:54.614Z,68.80
2022-10-24T10:34:54.634Z,77.50
2022-10-24T10:35:54.601Z,63.97
2022-10-24T10:36:54.700Z,63.00
2022-10-24T10:37:54.703Z,62.20
2022-10-24T10:38:54.574Z,59.94
2022-10-24T10:39:54.610Z,73.32
2022-10-24T10:40:54.559Z,59.30
2022-10-24T10:42:54.525Z,60.75
2022-10-24T10:43:54.533Z,75.57
2022-10-24T10:44:54.530Z,56.40
2022-10-24T10:45:54.608Z,59.14
2022-10-24T10:46:54.497Z,67.03
2022-10-24T10:47:54.563Z,66.71
2022-10-24T10:48:54.511Z,59.62
2022-10-24T10:49:54.532Z,57.04
2022-10-24T10:50:54.478Z,59.62
2022-10-24T10:51:54.458Z,71.54
2022-10-24T10:52:54.442Z,75.09
2022-10-24T10:53:54.454Z,61.23
2022-10-24T10:54:54.429Z,65.74
2022-10-24T10:55:54.460Z,61.71
2022-10-24T10:56:54.574Z,71.54
2022-10-24T10:57:54.403Z,61.55
2022-10-24T10:58:54.391Z,60.42
2022-10-24T10:59:54.335Z,64.29
2022-10-24T11:00:54.329Z,69.77
2022-10-24T11:01:54.549Z,65.90
2022-10-24T11:02:54.649Z,69.61
2022-10-24T11:03:54.432Z,74.28
2022-10-24T11:04:55.696Z,71.06
2022-10-24T11:05:54.274Z,72.03
2022-10-24T11:06:54.675Z,74.60
2022-10-24T11:07:54.340Z,67.51
2022-10-24T11:08:54.296Z,65.10
2022-10-24T11:09:54.298Z,64.61
2022-10-24T11:10:54.266Z,59.30
2022-10-24T11:11:54.254Z,70.09
2022-10-24T11:12:54.227Z,62.04
2022-10-24T11:13:54.255Z,58.97
2022-10-24T11:14:54.232Z,59.62
2022-10-24T11:15:54.221Z,63.16
2022-10-24T11:16:54.270Z,62.68
2022-10-24T11:17:54.210Z,61.23
2022-10-24T11:18:54.177Z,61.71
2022-10-24T11:19:54.267Z,58.17
2022-10-24T11:20:54.233Z,54.62
2022-10-24T11:21:54.151Z,55.91
2022-10-24T11:22:54.133Z,64.45
2022-10-24T11:23:54.126Z,59.46
2022-10-24T11:24:54.130Z,61.87
2022-10-24T11:25:54.111Z,61.23
2022-10-24T11:26:54.060Z,57.20
2022-10-24T11:27:54.092Z,59.14
2022-10-24T11:28:54.098Z,64.94
2022-10-24T11:29:54.105Z,61.39
2022-10-24T11:30:54.094Z,64.78
2022-10-24T11:31:54.122Z,61.71
2022-10-24T11:32:54.052Z,60.10
2022-10-24T11:33:54.027Z,66.23
2022-10-24T11:34:54.101Z,64.29
2022-10-24T11:35:53.992Z,68.00
2022-10-24T11:36:55.821Z,61.87
2022-10-24T11:37:54.005Z,63.65
2022-10-24T11:38:53.955Z,60.75
2022-10-24T11:39:53.975Z,66.39
2022-10-24T11:40:57.765Z,63.00
2022-10-24T11:41:54.007Z,58.81
2022-10-24T11:42:54.032Z,59.78
2022-10-24T11:43:53.921Z,59.46
2022-10-24T11:44:53.959Z,66.55
2022-10-24T11:45:53.926Z,65.10
2022-10-24T11:46:53.939Z,60.91
2022-10-24T11:47:53.916Z,63.16
2022-10-24T11:48:53.917Z,64.78
2022-10-24T11:49:53.876Z,64.78
2022-10-24T11:50:53.863Z,68.48
2022-10-24T11:51:53.849Z,68.64
2022-10-24T11:52:53.939Z,65.10
2022-10-24T11:53:53.870Z,60.91
2022-10-24T11:54:53.848Z,62.68
2022-10-24T11:55:53.846Z,60.26
2022-10-24T11:56:53.774Z,59.14
2022-10-24T11:57:53.771Z,65.58
2022-10-24T11:58:53.766Z,61.71
2022-10-24T11:59:53.800Z,73.48
2022-10-24T12:00:53.733Z,60.26
2022-10-24T12:01:53.860Z,67.51
2022-10-24T12:02:53.854Z,62.84
2022-10-24T12:03:53.726Z,61.55
2022-10-24T12:04:53.708Z,63.16
2022-10-24T12:05:53.779Z,57.20
2022-10-24T12:06:53.695Z,57.69
2022-10-24T12:07:53.811Z,60.75
2022-10-24T12:08:53.702Z,57.85
2022-10-24T12:09:53.662Z,64.61
2022-10-24T12:10:53.656Z,62.36
2022-10-24T12:11:53.662Z,65.58
2022-10-24T12:12:53.674Z,70.74
2022-10-24T12:13:53.759Z,61.07
2022-10-24T12:14:53.628Z,57.85
2022-10-24T12:15:53.675Z,61.87
2022-10-24T12:16:53.625Z,59.46
2022-10-24T12:17:53.700Z,76.38
2022-10-24T12:18:53.552Z,68.00
2022-10-24T12:19:53.617Z,67.19
2022-10-24T12:20:53.559Z,64.29
2022-10-24T12:21:53.550Z,61.07
2022-10-24T12:22:53.539Z,61.71
2022-10-24T12:23:53.541Z,62.20
2022-10-24T12:24:53.514Z,68.32
2022-10-24T12:25:53.566Z,68.32
2022-10-24T12:26:53.619Z,73.96
2022-10-24T12:27:53.510Z,65.26
2022-10-24T12:28:53.482Z,68.16
2022-10-24T12:29:53.488Z,69.77
2022-10-24T12:31:53.438Z,78.63
2022-10-24T12:32:53.402Z,67.84
2022-10-24T12:33:53.462Z,72.67
2022-10-24T12:34:58.368Z,68.80
2022-10-24T12:35:53.490Z,68.96
2022-10-24T12:36:53.388Z,65.90
2022-10-24T12:37:53.401Z,60.42
2022-10-24T12:38:54.521Z,66.87
2022-10-24T12:39:57.609Z,60.10
2022-10-24T12:40:53.356Z,69.29
2022-10-24T12:41:53.334Z,67.03
2022-10-24T12:42:53.310Z,66.71
2022-10-24T12:43:53.372Z,66.39
2022-10-24T12:44:53.342Z,69.93
2022-10-24T12:45:53.331Z,63.49
2022-10-24T12:46:53.309Z,61.87
2022-10-24T12:47:53.397Z,63.49
2022-10-24T12:48:53.305Z,59.30
2022-10-24T12:49:53.310Z,68.00
2022-10-24T12:50:53.251Z,65.42
2022-10-24T12:51:53.257Z,62.20
2022-10-24T12:52:53.268Z,68.16
2022-10-24T12:53:53.242Z,67.03
2022-10-24T12:54:53.210Z,69.13
2022-10-24T12:55:53.230Z,67.68